sensor_id;sensor_type;location;lat;lon;timestamp;P1;durP1;ratioP1;P2;durP2;ratioP2
49572;SDS011;35476;52.466;13.364;2022-08-19T00:01:51;25.60;;;23.42;;
49572;SDS011;35476;52.466;13.364;2022-08-19T00:04:17;23.50;;;21.17;;
49572;SDS011;35476;52.466;13.364;2022-08-19T00:06:43;25.50;;;23.10;;
49572;SDS011;35476;52.466;13.364;2022-08-19T00:09:09;24.10;;;21.55;;
49572;SDS011;35476;52.466;13.364;2022-08-19T00:11:35;24.00;;;21.70;;
49572;SDS011;35476;52.466;13.364;2022-08-19T00:14:02;22.13;;;20.23;;
49572;SDS011;35476;52.466;13.364;2022-08-19T00:16:28;24.33;;;22.33;;
49572;SDS011;35476;52.466;13.364;2022-08-19T00:18:54;27.77;;;25.00;;
49572;SDS011;35476;52.466;13.364;2022-08-19T00:21:20;25.10;;;22.77;;
49572;SDS011;35476;52.466;13.364;2022-08-19T00:23:45;32.97;;;21.98;;
49572;SDS011;35476;52.466;13.364;2022-08-19T00:26:11;23.70;;;21.48;;
49572;SDS011;35476;52.466;13.364;2022-08-19T00:28:36;21.10;;;19.08;;
49572;SDS011;35476;52.466;13.364;2022-08-19T00:31:03;21.83;;;19.88;;
49572;SDS011;35476;52.466;13.364;2022-08-19T00:33:29;33.63;;;20.88;;
49572;SDS011;35476;52.466;13.364;2022-08-19T00:35:57;22.52;;;20.40;;
49572;SDS011;35476;52.466;13.364;2022-08-19T00:38:22;21.67;;;19.77;;
49572;SDS011;35476;52.466;13.364;2022-08-19T00:40:47;24.70;;;22.53;;
49572;SDS011;35476;52.466;13.364;2022-08-19T00:43:14;20.23;;;18.48;;
49572;SDS011;35476;52.466;13.364;2022-08-19T00:45:42;19.05;;;17.42;;
49572;SDS011;35476;52.466;13.364;2022-08-19T00:48:08;20.50;;;18.67;;
49572;SDS011;35476;52.466;13.364;2022-08-19T00:50:34;22.98;;;20.92;;
49572;SDS011;35476;52.466;13.364;2022-08-19T00:53:00;21.77;;;19.90;;
49572;SDS011;35476;52.466;13.364;2022-08-19T00:55:29;25.05;;;22.67;;
49572;SDS011;35476;52.466;13.364;2022-08-19T00:57:56;25.88;;;23.50;;
49572;SDS011;35476;52.466;13.364;2022-08-19T01:00:23;25.30;;;23.05;;
49572;SDS011;35476;52.466;13.364;2022-08-19T01:02:48;28.73;;;26.02;;
49572;SDS011;35476;52.466;13.364;2022-08-19T01:05:16;28.20;;;25.63;;
49572;SDS011;35476;52.466;13.364;2022-08-19T01:07:43;26.02;;;23.70;;
49572;SDS011;35476;52.466;13.364;2022-08-19T01:10:13;24.85;;;22.50;;
49572;SDS011;35476;52.466;13.364;2022-08-19T01:12:39;26.10;;;23.77;;
49572;SDS011;35476;52.466;13.364;2022-08-19T01:15:05;26.98;;;24.67;;
49572;SDS011;35476;52.466;13.364;2022-08-19T01:17:31;28.70;;;26.00;;
49572;SDS011;35476;52.466;13.364;2022-08-19T01:19:56;27.45;;;24.63;;
49572;SDS011;35476;52.466;13.364;2022-08-19T01:25:00;23.98;;;21.50;;
49572;SDS011;35476;52.466;13.364;2022-08-19T01:27:25;23.30;;;21.02;;
49572;SDS011;35476;52.466;13.364;2022-08-19T01:29:51;25.13;;;23.02;;
49572;SDS011;35476;52.466;13.364;2022-08-19T01:32:16;22.73;;;20.65;;
49572;SDS011;35476;52.466;13.364;2022-08-19T01:34:42;27.40;;;20.48;;
49572;SDS011;35476;52.466;13.364;2022-08-19T01:37:12;35.60;;;27.05;;
49572;SDS011;35476;52.466;13.364;2022-08-19T01:39:38;96.55;;;32.13;;
49572;SDS011;35476;52.466;13.364;2022-08-19T01:42:03;77.97;;;34.22;;
49572;SDS011;35476;52.466;13.364;2022-08-19T01:44:29;37.88;;;30.40;;
49572;SDS011;35476;52.466;13.364;2022-08-19T01:46:55;37.72;;;33.83;;
49572;SDS011;35476;52.466;13.364;2022-08-19T01:49:21;34.53;;;30.83;;
49572;SDS011;35476;52.466;13.364;2022-08-19T01:51:47;38.08;;;33.80;;
49572;SDS011;35476;52.466;13.364;2022-08-19T01:54:13;37.97;;;34.00;;
49572;SDS011;35476;52.466;13.364;2022-08-19T01:56:38;42.78;;;38.22;;
49572;SDS011;35476;52.466;13.364;2022-08-19T01:59:04;51.70;;;41.93;;
49572;SDS011;35476;52.466;13.364;2022-08-19T02:01:33;54.97;;;44.00;;
49572;SDS011;35476;52.466;13.364;2022-08-19T02:03:59;231.73;;;55.03;;
49572;SDS011;35476;52.466;13.364;2022-08-19T02:06:25;59.65;;;41.90;;
49572;SDS011;35476;52.466;13.364;2022-08-19T02:08:50;71.75;;;42.90;;
49572;SDS011;35476;52.466;13.364;2022-08-19T02:11:25;95.00;;;42.03;;
49572;SDS011;35476;52.466;13.364;2022-08-19T02:13:51;206.57;;;48.25;;
49572;SDS011;35476;52.466;13.364;2022-08-19T02:16:17;73.15;;;47.30;;
49572;SDS011;35476;52.466;13.364;2022-08-19T02:18:43;47.40;;;42.00;;
49572;SDS011;35476;52.466;13.364;2022-08-19T02:21:08;56.40;;;44.67;;
49572;SDS011;35476;52.466;13.364;2022-08-19T02:23:33;58.20;;;46.40;;
49572;SDS011;35476;52.466;13.364;2022-08-19T02:25:59;50.53;;;43.90;;
49572;SDS011;35476;52.466;13.364;2022-08-19T02:28:24;56.63;;;46.27;;
49572;SDS011;35476;52.466;13.364;2022-08-19T02:30:49;55.67;;;43.70;;
49572;SDS011;35476;52.466;13.364;2022-08-19T02:33:14;53.80;;;43.17;;
49572;SDS011;35476;52.466;13.364;2022-08-19T02:35:43;54.28;;;41.83;;
49572;SDS011;35476;52.466;13.364;2022-08-19T02:38:09;50.28;;;40.22;;
49572;SDS011;35476;52.466;13.364;2022-08-19T02:43:18;48.77;;;36.30;;
49572;SDS011;35476;52.466;13.364;2022-08-19T02:45:45;41.95;;;37.40;;
49572;SDS011;35476;52.466;13.364;2022-08-19T02:48:10;44.22;;;37.88;;
49572;SDS011;35476;52.466;13.364;2022-08-19T02:50:38;43.63;;;39.00;;
49572;SDS011;35476;52.466;13.364;2022-08-19T02:53:04;41.35;;;34.70;;
49572;SDS011;35476;52.466;13.364;2022-08-19T02:55:29;38.72;;;34.55;;
49572;SDS011;35476;52.466;13.364;2022-08-19T02:57:54;41.83;;;37.20;;
49572;SDS011;35476;52.466;13.364;2022-08-19T03:00:20;42.63;;;37.67;;
49572;SDS011;35476;52.466;13.364;2022-08-19T03:02:45;49.65;;;40.33;;
49572;SDS011;35476;52.466;13.364;2022-08-19T03:05:11;45.80;;;40.75;;
49572;SDS011;35476;52.466;13.364;2022-08-19T03:07:37;37.40;;;33.53;;
49572;SDS011;35476;52.466;13.364;2022-08-19T03:10:02;46.00;;;40.15;;
49572;SDS011;35476;52.466;13.364;2022-08-19T03:12:28;45.17;;;39.10;;
49572;SDS011;35476;52.466;13.364;2022-08-19T03:14:53;49.53;;;39.55;;
49572;SDS011;35476;52.466;13.364;2022-08-19T03:17:18;46.13;;;41.00;;
49572;SDS011;35476;52.466;13.364;2022-08-19T03:19:44;52.95;;;43.00;;
49572;SDS011;35476;52.466;13.364;2022-08-19T03:22:09;51.35;;;40.20;;
49572;SDS011;35476;52.466;13.364;2022-08-19T03:24:34;56.03;;;45.47;;
49572;SDS011;35476;52.466;13.364;2022-08-19T03:27:00;50.85;;;45.38;;
49572;SDS011;35476;52.466;13.364;2022-08-19T03:29:26;56.65;;;44.78;;
49572;SDS011;35476;52.466;13.364;2022-08-19T03:31:51;51.28;;;42.40;;
49572;SDS011;35476;52.466;13.364;2022-08-19T03:34:19;53.92;;;46.50;;
49572;SDS011;35476;52.466;13.364;2022-08-19T03:36:45;55.22;;;45.10;;
49572;SDS011;35476;52.466;13.364;2022-08-19T03:39:10;56.03;;;45.75;;
49572;SDS011;35476;52.466;13.364;2022-08-19T03:41:37;53.43;;;47.03;;
49572;SDS011;35476;52.466;13.364;2022-08-19T03:44:02;55.92;;;48.20;;
49572;SDS011;35476;52.466;13.364;2022-08-19T03:46:29;55.67;;;47.63;;
49572;SDS011;35476;52.466;13.364;2022-08-19T03:48:56;80.03;;;56.95;;
49572;SDS011;35476;52.466;13.364;2022-08-19T03:51:28;78.55;;;58.10;;
49572;SDS011;35476;52.466;13.364;2022-08-19T03:53:56;105.30;;;73.00;;
49572;SDS011;35476;52.466;13.364;2022-08-19T03:56:21;107.65;;;78.50;;
49572;SDS011;35476;52.466;13.364;2022-08-19T03:58:46;120.68;;;81.35;;
49572;SDS011;35476;52.466;13.364;2022-08-19T04:01:13;104.10;;;75.30;;
49572;SDS011;35476;52.466;13.364;2022-08-19T04:03:39;85.72;;;64.43;;
49572;SDS011;35476;52.466;13.364;2022-08-19T04:06:11;64.78;;;53.05;;
49572;SDS011;35476;52.466;13.364;2022-08-19T04:08:37;61.65;;;53.35;;
49572;SDS011;35476;52.466;13.364;2022-08-19T04:11:05;59.42;;;49.28;;
49572;SDS011;35476;52.466;13.364;2022-08-19T04:13:31;57.10;;;47.63;;
49572;SDS011;35476;52.466;13.364;2022-08-19T04:15:56;58.53;;;48.70;;
49572;SDS011;35476;52.466;13.364;2022-08-19T04:18:21;51.07;;;45.57;;
49572;SDS011;35476;52.466;13.364;2022-08-19T04:20:46;51.43;;;44.90;;
49572;SDS011;35476;52.466;13.364;2022-08-19T04:23:13;58.03;;;48.28;;
49572;SDS011;35476;52.466;13.364;2022-08-19T04:25:39;47.80;;;42.63;;
49572;SDS011;35476;52.466;13.364;2022-08-19T04:28:05;48.75;;;43.50;;
49572;SDS011;35476;52.466;13.364;2022-08-19T04:30:30;54.95;;;46.33;;
49572;SDS011;35476;52.466;13.364;2022-08-19T04:32:56;58.40;;;49.00;;
49572;SDS011;35476;52.466;13.364;2022-08-19T04:35:21;60.73;;;50.83;;
49572;SDS011;35476;52.466;13.364;2022-08-19T04:37:46;50.38;;;43.05;;
49572;SDS011;35476;52.466;13.364;2022-08-19T04:40:12;63.27;;;48.33;;
49572;SDS011;35476;52.466;13.364;2022-08-19T04:42:55;55.70;;;46.38;;
49572;SDS011;35476;52.466;13.364;2022-08-19T04:45:21;49.47;;;43.28;;
49572;SDS011;35476;52.466;13.364;2022-08-19T04:47:46;53.97;;;46.53;;
49572;SDS011;35476;52.466;13.364;2022-08-19T04:50:12;41.35;;;37.13;;
49572;SDS011;35476;52.466;13.364;2022-08-19T04:52:38;46.77;;;42.20;;
49572;SDS011;35476;52.466;13.364;2022-08-19T04:55:07;51.22;;;42.00;;
49572;SDS011;35476;52.466;13.364;2022-08-19T04:57:32;42.03;;;37.75;;
49572;SDS011;35476;52.466;13.364;2022-08-19T04:59:57;42.05;;;38.08;;
49572;SDS011;35476;52.466;13.364;2022-08-19T05:02:23;32.67;;;28.63;;
49572;SDS011;35476;52.466;13.364;2022-08-19T05:04:49;31.77;;;28.48;;
49572;SDS011;35476;52.466;13.364;2022-08-19T05:07:14;31.95;;;28.92;;
49572;SDS011;35476;52.466;13.364;2022-08-19T05:09:40;30.57;;;27.37;;
49572;SDS011;35476;52.466;13.364;2022-08-19T05:12:05;27.60;;;25.20;;
49572;SDS011;35476;52.466;13.364;2022-08-19T05:14:31;24.30;;;22.20;;
49572;SDS011;35476;52.466;13.364;2022-08-19T05:16:56;24.07;;;22.00;;
49572;SDS011;35476;52.466;13.364;2022-08-19T05:19:21;22.83;;;20.73;;
49572;SDS011;35476;52.466;13.364;2022-08-19T05:22:05;25.50;;;23.25;;
49572;SDS011;35476;52.466;13.364;2022-08-19T05:24:49;22.33;;;20.50;;
49572;SDS011;35476;52.466;13.364;2022-08-19T05:27:14;20.90;;;18.83;;
49572;SDS011;35476;52.466;13.364;2022-08-19T05:29:39;20.80;;;18.60;;
49572;SDS011;35476;52.466;13.364;2022-08-19T05:32:05;18.80;;;17.10;;
49572;SDS011;35476;52.466;13.364;2022-08-19T05:34:35;19.58;;;17.98;;
49572;SDS011;35476;52.466;13.364;2022-08-19T05:37:03;21.98;;;16.63;;
49572;SDS011;35476;52.466;13.364;2022-08-19T05:39:30;17.67;;;15.82;;
49572;SDS011;35476;52.466;13.364;2022-08-19T05:41:57;16.92;;;15.55;;
49572;SDS011;35476;52.466;13.364;2022-08-19T05:44:27;16.60;;;15.20;;
49572;SDS011;35476;52.466;13.364;2022-08-19T05:46:52;16.33;;;14.70;;
49572;SDS011;35476;52.466;13.364;2022-08-19T05:49:18;15.80;;;14.40;;
49572;SDS011;35476;52.466;13.364;2022-08-19T05:51:44;15.60;;;13.98;;
49572;SDS011;35476;52.466;13.364;2022-08-19T05:54:10;13.63;;;12.48;;
49572;SDS011;35476;52.466;13.364;2022-08-19T05:56:38;15.35;;;12.95;;
49572;SDS011;35476;52.466;13.364;2022-08-19T05:59:04;14.40;;;13.13;;
49572;SDS011;35476;52.466;13.364;2022-08-19T06:01:33;15.20;;;13.80;;
49572;SDS011;35476;52.466;13.364;2022-08-19T06:03:59;16.35;;;14.65;;
49572;SDS011;35476;52.466;13.364;2022-08-19T06:06:24;14.80;;;13.43;;
49572;SDS011;35476;52.466;13.364;2022-08-19T06:08:50;15.57;;;14.07;;
49572;SDS011;35476;52.466;13.364;2022-08-19T06:13:40;15.17;;;13.43;;
49572;SDS011;35476;52.466;13.364;2022-08-19T06:16:06;15.97;;;14.40;;
49572;SDS011;35476;52.466;13.364;2022-08-19T06:18:31;14.73;;;13.33;;
49572;SDS011;35476;52.466;13.364;2022-08-19T06:20:58;14.63;;;13.32;;
49572;SDS011;35476;52.466;13.364;2022-08-19T06:23:23;13.87;;;12.67;;
49572;SDS011;35476;52.466;13.364;2022-08-19T06:25:48;14.88;;;13.57;;
49572;SDS011;35476;52.466;13.364;2022-08-19T06:28:14;14.37;;;13.17;;
49572;SDS011;35476;52.466;13.364;2022-08-19T06:30:39;15.40;;;12.23;;
49572;SDS011;35476;52.466;13.364;2022-08-19T06:33:04;13.77;;;12.47;;
49572;SDS011;35476;52.466;13.364;2022-08-19T06:35:29;14.60;;;13.17;;
49572;SDS011;35476;52.466;13.364;2022-08-19T06:37:55;13.63;;;12.30;;
49572;SDS011;35476;52.466;13.364;2022-08-19T06:40:20;14.68;;;12.48;;
49572;SDS011;35476;52.466;13.364;2022-08-19T06:42:45;14.73;;;13.43;;
49572;SDS011;35476;52.466;13.364;2022-08-19T06:45:10;15.63;;;14.23;;
49572;SDS011;35476;52.466;13.364;2022-08-19T06:47:35;14.93;;;13.63;;
49572;SDS011;35476;52.466;13.364;2022-08-19T06:50:01;14.88;;;13.57;;
49572;SDS011;35476;52.466;13.364;2022-08-19T06:52:29;16.15;;;14.05;;
49572;SDS011;35476;52.466;13.364;2022-08-19T06:54:54;14.65;;;13.13;;
49572;SDS011;35476;52.466;13.364;2022-08-19T06:57:20;15.38;;;13.98;;
49572;SDS011;35476;52.466;13.364;2022-08-19T06:59:46;16.33;;;14.68;;
49572;SDS011;35476;52.466;13.364;2022-08-19T07:02:11;14.90;;;13.60;;
49572;SDS011;35476;52.466;13.364;2022-08-19T07:04:36;16.73;;;14.93;;
49572;SDS011;35476;52.466;13.364;2022-08-19T07:07:11;15.40;;;13.82;;
49572;SDS011;35476;52.466;13.364;2022-08-19T07:09:38;15.10;;;13.90;;
49572;SDS011;35476;52.466;13.364;2022-08-19T07:12:05;14.77;;;12.75;;
49572;SDS011;35476;52.466;13.364;2022-08-19T07:14:31;13.95;;;12.63;;
49572;SDS011;35476;52.466;13.364;2022-08-19T07:16:57;15.02;;;13.70;;
49572;SDS011;35476;52.466;13.364;2022-08-19T07:19:23;13.77;;;12.40;;
49572;SDS011;35476;52.466;13.364;2022-08-19T07:21:50;14.85;;;13.45;;
49572;SDS011;35476;52.466;13.364;2022-08-19T07:24:19;14.40;;;12.70;;
49572;SDS011;35476;52.466;13.364;2022-08-19T07:26:45;14.70;;;13.32;;
49572;SDS011;35476;52.466;13.364;2022-08-19T07:29:10;13.07;;;11.98;;
49572;SDS011;35476;52.466;13.364;2022-08-19T07:31:36;19.08;;;14.27;;
49572;SDS011;35476;52.466;13.364;2022-08-19T07:34:02;120.97;;;32.20;;
49572;SDS011;35476;52.466;13.364;2022-08-19T07:36:31;21.55;;;14.13;;
49572;SDS011;35476;52.466;13.364;2022-08-19T07:38:57;19.70;;;13.35;;
49572;SDS011;35476;52.466;13.364;2022-08-19T07:41:24;13.90;;;12.70;;
49572;SDS011;35476;52.466;13.364;2022-08-19T07:43:49;13.88;;;12.23;;
49572;SDS011;35476;52.466;13.364;2022-08-19T07:46:15;13.63;;;12.18;;
49572;SDS011;35476;52.466;13.364;2022-08-19T07:48:42;14.07;;;12.35;;
49572;SDS011;35476;52.466;13.364;2022-08-19T07:51:08;15.60;;;14.05;;
49572;SDS011;35476;52.466;13.364;2022-08-19T07:53:35;14.57;;;13.25;;
49572;SDS011;35476;52.466;13.364;2022-08-19T07:56:00;14.32;;;12.77;;
49572;SDS011;35476;52.466;13.364;2022-08-19T07:58:29;14.27;;;12.98;;
49572;SDS011;35476;52.466;13.364;2022-08-19T08:00:54;12.90;;;11.80;;
49572;SDS011;35476;52.466;13.364;2022-08-19T08:03:20;15.47;;;12.23;;
49572;SDS011;35476;52.466;13.364;2022-08-19T08:06:06;12.70;;;11.55;;
49572;SDS011;35476;52.466;13.364;2022-08-19T08:08:50;14.57;;;12.23;;
49572;SDS011;35476;52.466;13.364;2022-08-19T08:11:34;14.60;;;13.27;;
49572;SDS011;35476;52.466;13.364;2022-08-19T08:13:59;18.90;;;13.80;;
49572;SDS011;35476;52.466;13.364;2022-08-19T08:16:25;13.82;;;12.52;;
49572;SDS011;35476;52.466;13.364;2022-08-19T08:18:54;16.20;;;14.63;;
49572;SDS011;35476;52.466;13.364;2022-08-19T08:21:20;15.57;;;14.03;;
49572;SDS011;35476;52.466;13.364;2022-08-19T08:23:45;72.77;;;23.70;;
49572;SDS011;35476;52.466;13.364;2022-08-19T08:26:10;109.20;;;31.63;;
49572;SDS011;35476;52.466;13.364;2022-08-19T08:28:38;70.00;;;23.38;;
49572;SDS011;35476;52.466;13.364;2022-08-19T08:31:03;188.90;;;38.92;;
49572;SDS011;35476;52.466;13.364;2022-08-19T08:33:29;15.32;;;13.77;;
49572;SDS011;35476;52.466;13.364;2022-08-19T08:35:55;16.80;;;15.05;;
49572;SDS011;35476;52.466;13.364;2022-08-19T08:38:20;17.38;;;13.45;;
49572;SDS011;35476;52.466;13.364;2022-08-19T08:40:49;15.10;;;13.70;;
49572;SDS011;35476;52.466;13.364;2022-08-19T08:43:29;15.38;;;14.10;;
49572;SDS011;35476;52.466;13.364;2022-08-19T08:48:39;15.15;;;13.85;;
49572;SDS011;35476;52.466;13.364;2022-08-19T08:51:09;15.35;;;14.05;;
49572;SDS011;35476;52.466;13.364;2022-08-19T08:53:35;16.45;;;14.85;;
49572;SDS011;35476;52.466;13.364;2022-08-19T08:56:02;15.65;;;14.25;;
49572;SDS011;35476;52.466;13.364;2022-08-19T08:58:29;15.48;;;13.90;;
49572;SDS011;35476;52.466;13.364;2022-08-19T09:00:55;15.85;;;14.55;;
49572;SDS011;35476;52.466;13.364;2022-08-19T09:03:22;15.05;;;13.85;;
49572;SDS011;35476;52.466;13.364;2022-08-19T09:05:52;17.73;;;15.65;;
49572;SDS011;35476;52.466;13.364;2022-08-19T09:11:10;15.82;;;14.43;;
49572;SDS011;35476;52.466;13.364;2022-08-19T09:16:03;16.87;;;15.07;;
49572;SDS011;35476;52.466;13.364;2022-08-19T09:18:49;59.13;;;20.45;;
49572;SDS011;35476;52.466;13.364;2022-08-19T09:21:18;33.30;;;16.17;;
49572;SDS011;35476;52.466;13.364;2022-08-19T09:23:43;15.43;;;14.00;;
49572;SDS011;35476;52.466;13.364;2022-08-19T09:26:09;15.10;;;13.70;;
49572;SDS011;35476;52.466;13.364;2022-08-19T09:28:38;15.18;;;13.63;;
49572;SDS011;35476;52.466;13.364;2022-08-19T09:31:03;43.10;;;16.35;;
49572;SDS011;35476;52.466;13.364;2022-08-19T09:33:28;13.37;;;12.10;;
49572;SDS011;35476;52.466;13.364;2022-08-19T09:36:04;14.98;;;12.35;;
49572;SDS011;35476;52.466;13.364;2022-08-19T09:38:29;14.13;;;12.80;;
49572;SDS011;35476;52.466;13.364;2022-08-19T09:40:55;13.47;;;12.37;;
49572;SDS011;35476;52.466;13.364;2022-08-19T09:43:20;13.07;;;11.87;;
49572;SDS011;35476;52.466;13.364;2022-08-19T09:45:46;13.40;;;12.10;;
49572;SDS011;35476;52.466;13.364;2022-08-19T09:48:12;14.15;;;12.88;;
49572;SDS011;35476;52.466;13.364;2022-08-19T09:50:37;30.53;;;15.73;;
49572;SDS011;35476;52.466;13.364;2022-08-19T09:53:03;23.83;;;14.73;;
49572;SDS011;35476;52.466;13.364;2022-08-19T09:55:31;91.68;;;25.17;;
49572;SDS011;35476;52.466;13.364;2022-08-19T09:57:56;100.90;;;25.77;;
49572;SDS011;35476;52.466;13.364;2022-08-19T10:00:21;20.83;;;13.23;;
49572;SDS011;35476;52.466;13.364;2022-08-19T10:02:46;18.13;;;14.33;;
49572;SDS011;35476;52.466;13.364;2022-08-19T10:05:11;13.53;;;12.43;;
49572;SDS011;35476;52.466;13.364;2022-08-19T10:07:55;15.25;;;12.93;;
49572;SDS011;35476;52.466;13.364;2022-08-19T10:10:20;14.43;;;13.03;;
49572;SDS011;35476;52.466;13.364;2022-08-19T10:12:45;15.50;;;13.97;;
49572;SDS011;35476;52.466;13.364;2022-08-19T10:15:12;16.30;;;14.18;;
49572;SDS011;35476;52.466;13.364;2022-08-19T10:17:38;14.98;;;13.45;;
49572;SDS011;35476;52.466;13.364;2022-08-19T10:20:03;13.82;;;12.07;;
49572;SDS011;35476;52.466;13.364;2022-08-19T10:22:29;15.52;;;13.88;;
49572;SDS011;35476;52.466;13.364;2022-08-19T10:24:54;13.25;;;12.10;;
49572;SDS011;35476;52.466;13.364;2022-08-19T10:27:19;14.27;;;12.87;;
49572;SDS011;35476;52.466;13.364;2022-08-19T10:29:45;14.43;;;12.88;;
49572;SDS011;35476;52.466;13.364;2022-08-19T10:32:10;14.25;;;13.05;;
49572;SDS011;35476;52.466;13.364;2022-08-19T10:34:36;14.00;;;12.83;;
49572;SDS011;35476;52.466;13.364;2022-08-19T10:37:03;15.90;;;12.15;;
49572;SDS011;35476;52.466;13.364;2022-08-19T10:39:30;12.30;;;11.18;;
49572;SDS011;35476;52.466;13.364;2022-08-19T10:41:55;13.20;;;11.88;;
49572;SDS011;35476;52.466;13.364;2022-08-19T10:44:21;13.55;;;12.35;;
49572;SDS011;35476;52.466;13.364;2022-08-19T10:46:48;13.20;;;11.95;;
49572;SDS011;35476;52.466;13.364;2022-08-19T10:49:13;13.95;;;12.65;;
49572;SDS011;35476;52.466;13.364;2022-08-19T10:51:39;14.02;;;12.73;;
49572;SDS011;35476;52.466;13.364;2022-08-19T10:54:23;14.15;;;12.95;;
49572;SDS011;35476;52.466;13.364;2022-08-19T10:57:09;16.27;;;12.73;;
49572;SDS011;35476;52.466;13.364;2022-08-19T10:59:34;15.38;;;14.05;;
49572;SDS011;35476;52.466;13.364;2022-08-19T11:02:00;14.60;;;12.35;;
49572;SDS011;35476;52.466;13.364;2022-08-19T11:04:26;13.95;;;12.68;;
49572;SDS011;35476;52.466;13.364;2022-08-19T11:06:51;14.68;;;12.38;;
49572;SDS011;35476;52.466;13.364;2022-08-19T11:09:18;12.85;;;11.73;;
49572;SDS011;35476;52.466;13.364;2022-08-19T11:11:44;13.57;;;12.18;;
49572;SDS011;35476;52.466;13.364;2022-08-19T11:14:10;11.88;;;10.68;;
49572;SDS011;35476;52.466;13.364;2022-08-19T11:16:36;13.10;;;12.00;;
49572;SDS011;35476;52.466;13.364;2022-08-19T11:19:04;12.88;;;11.68;;
49572;SDS011;35476;52.466;13.364;2022-08-19T11:21:31;13.93;;;12.45;;
49572;SDS011;35476;52.466;13.364;2022-08-19T11:23:58;12.55;;;11.30;;
49572;SDS011;35476;52.466;13.364;2022-08-19T11:26:24;13.73;;;12.45;;
49572;SDS011;35476;52.466;13.364;2022-08-19T11:28:49;13.48;;;12.02;;
49572;SDS011;35476;52.466;13.364;2022-08-19T11:31:20;14.77;;;13.35;;
49572;SDS011;35476;52.466;13.364;2022-08-19T11:33:46;13.50;;;11.85;;
49572;SDS011;35476;52.466;13.364;2022-08-19T11:36:11;13.30;;;11.98;;
49572;SDS011;35476;52.466;13.364;2022-08-19T11:38:36;12.45;;;11.27;;
49572;SDS011;35476;52.466;13.364;2022-08-19T11:41:04;13.10;;;11.83;;
49572;SDS011;35476;52.466;13.364;2022-08-19T11:43:30;11.60;;;10.43;;
49572;SDS011;35476;52.466;13.364;2022-08-19T11:45:56;12.57;;;11.40;;
49572;SDS011;35476;52.466;13.364;2022-08-19T11:48:21;13.60;;;10.30;;
49572;SDS011;35476;52.466;13.364;2022-08-19T11:50:51;12.25;;;10.82;;
49572;SDS011;35476;52.466;13.364;2022-08-19T11:53:17;11.55;;;10.35;;
49572;SDS011;35476;52.466;13.364;2022-08-19T11:55:43;11.02;;;9.98;;
49572;SDS011;35476;52.466;13.364;2022-08-19T11:58:09;9.93;;;9.05;;
49572;SDS011;35476;52.466;13.364;2022-08-19T12:00:35;12.02;;;10.93;;
49572;SDS011;35476;52.466;13.364;2022-08-19T12:03:02;11.43;;;9.95;;
49572;SDS011;35476;52.466;13.364;2022-08-19T12:05:27;14.75;;;11.05;;
49572;SDS011;35476;52.466;13.364;2022-08-19T12:07:52;11.80;;;10.67;;
49572;SDS011;35476;52.466;13.364;2022-08-19T12:10:19;12.80;;;9.65;;
49572;SDS011;35476;52.466;13.364;2022-08-19T12:12:44;11.65;;;10.35;;
49572;SDS011;35476;52.466;13.364;2022-08-19T12:15:10;16.02;;;9.65;;
49572;SDS011;35476;52.466;13.364;2022-08-19T12:17:36;9.20;;;8.45;;
49572;SDS011;35476;52.466;13.364;2022-08-19T12:20:02;10.40;;;9.52;;
49572;SDS011;35476;52.466;13.364;2022-08-19T12:22:28;18.13;;;9.63;;
49572;SDS011;35476;52.466;13.364;2022-08-19T12:24:53;13.30;;;11.73;;
49572;SDS011;35476;52.466;13.364;2022-08-19T12:27:19;16.63;;;9.63;;
49572;SDS011;35476;52.466;13.364;2022-08-19T12:29:45;10.75;;;9.55;;
49572;SDS011;35476;52.466;13.364;2022-08-19T12:32:10;10.43;;;9.07;;
49572;SDS011;35476;52.466;13.364;2022-08-19T12:34:35;10.03;;;9.10;;
49572;SDS011;35476;52.466;13.364;2022-08-19T12:37:02;10.48;;;9.35;;
49572;SDS011;35476;52.466;13.364;2022-08-19T12:39:28;9.25;;;8.45;;
49572;SDS011;35476;52.466;13.364;2022-08-19T12:41:53;9.67;;;8.77;;
49572;SDS011;35476;52.466;13.364;2022-08-19T12:44:18;13.82;;;7.55;;
49572;SDS011;35476;52.466;13.364;2022-08-19T12:46:44;8.73;;;8.00;;
49572;SDS011;35476;52.466;13.364;2022-08-19T12:49:09;8.00;;;7.25;;
49572;SDS011;35476;52.466;13.364;2022-08-19T12:51:34;9.85;;;7.18;;
49572;SDS011;35476;52.466;13.364;2022-08-19T12:54:00;7.90;;;7.10;;
49572;SDS011;35476;52.466;13.364;2022-08-19T12:56:26;11.18;;;7.70;;
49572;SDS011;35476;52.466;13.364;2022-08-19T12:58:52;8.73;;;6.80;;
49572;SDS011;35476;52.466;13.364;2022-08-19T13:01:17;7.45;;;6.72;;
49572;SDS011;35476;52.466;13.364;2022-08-19T13:03:44;9.13;;;7.20;;
49572;SDS011;35476;52.466;13.364;2022-08-19T13:06:10;8.57;;;7.60;;
49572;SDS011;35476;52.466;13.364;2022-08-19T13:08:35;8.17;;;7.30;;
49572;SDS011;35476;52.466;13.364;2022-08-19T13:11:22;8.70;;;7.68;;
49572;SDS011;35476;52.466;13.364;2022-08-19T13:13:49;8.55;;;7.65;;
49572;SDS011;35476;52.466;13.364;2022-08-19T13:16:16;10.07;;;8.38;;
49572;SDS011;35476;52.466;13.364;2022-08-19T13:18:42;8.68;;;7.93;;
49572;SDS011;35476;52.466;13.364;2022-08-19T13:21:08;11.15;;;10.07;;
49572;SDS011;35476;52.466;13.364;2022-08-19T13:23:34;10.13;;;9.23;;
49572;SDS011;35476;52.466;13.364;2022-08-19T13:26:01;10.02;;;8.50;;
49572;SDS011;35476;52.466;13.364;2022-08-19T13:28:27;9.60;;;8.82;;
49572;SDS011;35476;52.466;13.364;2022-08-19T13:31:14;10.55;;;9.55;;
49572;SDS011;35476;52.466;13.364;2022-08-19T13:33:58;12.38;;;9.65;;
49572;SDS011;35476;52.466;13.364;2022-08-19T13:36:23;11.80;;;10.50;;
49572;SDS011;35476;52.466;13.364;2022-08-19T13:38:48;10.43;;;9.33;;
49572;SDS011;35476;52.466;13.364;2022-08-19T13:41:13;10.00;;;9.00;;
49572;SDS011;35476;52.466;13.364;2022-08-19T13:43:38;10.17;;;9.10;;
49572;SDS011;35476;52.466;13.364;2022-08-19T13:46:08;9.77;;;8.97;;
49572;SDS011;35476;52.466;13.364;2022-08-19T13:48:33;12.50;;;8.73;;
49572;SDS011;35476;52.466;13.364;2022-08-19T13:50:59;10.37;;;9.37;;
49572;SDS011;35476;52.466;13.364;2022-08-19T13:53:24;9.40;;;8.47;;
49572;SDS011;35476;52.466;13.364;2022-08-19T13:55:49;13.02;;;9.02;;
49572;SDS011;35476;52.466;13.364;2022-08-19T13:58:15;10.07;;;9.07;;
49572;SDS011;35476;52.466;13.364;2022-08-19T14:00:42;9.00;;;8.10;;
49572;SDS011;35476;52.466;13.364;2022-08-19T14:03:08;9.88;;;8.65;;
49572;SDS011;35476;52.466;13.364;2022-08-19T14:05:34;8.73;;;7.93;;
49572;SDS011;35476;52.466;13.364;2022-08-19T14:07:59;8.93;;;7.45;;
49572;SDS011;35476;52.466;13.364;2022-08-19T14:10:25;8.00;;;7.03;;
49572;SDS011;35476;52.466;13.364;2022-08-19T14:12:57;8.95;;;8.05;;
49572;SDS011;35476;52.466;13.364;2022-08-19T14:15:23;8.68;;;7.60;;
49572;SDS011;35476;52.466;13.364;2022-08-19T14:17:48;11.77;;;8.05;;
49572;SDS011;35476;52.466;13.364;2022-08-19T14:20:14;9.83;;;8.83;;
49572;SDS011;35476;52.466;13.364;2022-08-19T14:22:41;10.45;;;8.02;;
49572;SDS011;35476;52.466;13.364;2022-08-19T14:25:11;9.32;;;8.43;;